Terminal Aerodrome Forecast
Issued by NWS

Home | Current Version | Previous Version | Text Only | Print | Product List | Glossary On
Versions: 1 2 3 4 5 6 7 8 9 10 11 12
000
FTAK31 PAJN 251700
TAFAPG
TAF
PAPG 251723Z 2518/2618 24003KT 6SM -RA BR OVC020
     FM252100 VRB04KT P6SM VCSH SCT015 OVC030
     FM260600 VRB03KT P6SM -SHRA SCT010 OVC020
     FM261200 00000KT 5SM -SHRA BR SCT006 BKN020
      AMD LTD TO CLD VIS AND WIND 2606/2615=

USA.gov is the U.S. government's official web portal to all federal, state and local government web resources and services.